Pil'Vo, Russia
Current Conditions -  °F | °C
As of 3:00 PM on Tuesday 21 Oct 2014 (Local Time) from UHSS Reporting Station
Clear Clear  
Wind Chill: 38°   Ceiling: Unl
Heat Index: 43°   Visibility: 6mi
Dew Point: 16°   Wind: 9mph
Humidity: 34%   Direction: 320°NW
Pressure: 30"   Gusts: 20mph
Location:  50.05°N, 142.17°E
Report Text: UHSS 210400Z 32004G09MPS 9999 NSC 06/M09 Q1016 NOSIG RMKQFE761/1015 01CLRD70
Loading
Personal Weather Stations






























Interactive Weather Map
Tropical Storm Tracking
New forecast layout! Learn more

10-Day Weather Forecast

Advertisements
Track Severe Weather on mobile